Songa Opal — V7RO5 — position and weather

sailwx.info

Track history (hours):
 
Tides and Currents Weather Stations Pressure Air Temp Water Temp Dewpoint Dewpoint Depression Visibility Wind Speed Wind Dir Waves Ship Positions

Songa Opal

Last reported at 2016-Jul-11 22:09 UTC. Time now 2016-Jul-29 02:07 UTC.
Position N 29°45' W 090°01'.
Warning: this ship's position is 17 days out of date.

Length 148 m; draft 8.2 m.

Type: Ship. MMSI: 538003550.

Date/timePositionNaut miles runAvg speedWind from/ knotsBaromVisibWave heightAir tempDewpointWater temp
2016-Jul-11 22:09N 29°45' W 090°01'813.0
2016-Jul-11 21:33N 29°52' W 089°58'5 5.5
2016-Jul-11 20:33N 29°57' W 090°02'8 7.8
2016-Jul-11 19:33N 29°56' W 090°11'  
2016-Jul-06 19:21N 29°58' W 090°18'1 0.1
2016-Jul-06 08:15N 29°58' W 090°17'4 5.6
2016-Jul-06 07:29N 29°56' W 090°13'8 8.1
2016-Jul-06 06:33N 29°55' W 090°04'8 7.6
2016-Jul-06 05:33N 29°55' W 089°55'8 8.1
2016-Jul-06 04:33N 29°48' W 090°00'  
Track history (hours):
 
Tides and Currents Weather Stations Pressure Air Temp Water Temp Dewpoint Dewpoint Depression Visibility Wind Speed Wind Dir Waves Ship Positions

Songa Opal

Last reported at 2016-Jul-11 22:09 UTC. Time now 2016-Jul-29 02:07 UTC.
Position N 29°45' W 090°01'.
Warning: this ship's position is 17 days out of date.

Length 148 m; draft 8.2 m.

Type: Ship. MMSI: 538003550.

Date/timePositionNaut miles runAvg speedWind from/ knotsBaromVisibWave heightAir tempDewpointWater temp
2016-Jul-11 22:09N 29°45' W 090°01'813.0
2016-Jul-11 21:33N 29°52' W 089°58'5 5.5
2016-Jul-11 20:33N 29°57' W 090°02'8 7.8
2016-Jul-11 19:33N 29°56' W 090°11'  
2016-Jul-06 19:21N 29°58' W 090°18'1 0.1
2016-Jul-06 08:15N 29°58' W 090°17'4 5.6
2016-Jul-06 07:29N 29°56' W 090°13'8 8.1
2016-Jul-06 06:33N 29°55' W 090°04'8 7.6
2016-Jul-06 05:33N 29°55' W 089°55'8 8.1
2016-Jul-06 04:33N 29°48' W 090°00'  

Dump ship's entire track history